createdAt,value
2023-04-18T00:00:27.156Z,6.16
2023-04-18T00:02:55.033Z,6.17
2023-04-18T00:05:21.989Z,6.20
2023-04-18T00:07:48.596Z,6.19
2023-04-18T00:10:15.403Z,6.18
2023-04-18T00:12:42.895Z,6.12
2023-04-18T00:15:09.710Z,6.08
2023-04-18T00:17:38.357Z,6.06
2023-04-18T00:20:07.835Z,6.03
2023-04-18T00:22:34.294Z,5.98
2023-04-18T00:25:00.733Z,5.94
2023-04-18T00:27:27.160Z,5.91
2023-04-18T00:29:53.579Z,5.87
2023-04-18T00:32:20.093Z,5.85
2023-04-18T00:34:46.509Z,5.84
2023-04-18T00:37:12.995Z,5.82
2023-04-18T00:39:41.675Z,5.86
2023-04-18T00:42:08.597Z,5.81
2023-04-18T00:44:35.041Z,5.81
2023-04-18T00:47:01.505Z,5.80
2023-04-18T00:49:28.395Z,5.76
2023-04-18T00:51:56.413Z,5.72
2023-04-18T00:54:24.398Z,5.67
2023-04-18T00:56:51.315Z,5.64
2023-04-18T00:59:18.898Z,5.60
2023-04-18T01:01:45.457Z,5.53
2023-04-18T01:04:12.588Z,5.52
2023-04-18T01:06:40.729Z,5.45
2023-04-18T01:09:07.199Z,5.36
2023-04-18T01:11:33.653Z,5.27
2023-04-18T01:14:05.500Z,5.26
2023-04-18T01:16:36.762Z,5.23
2023-04-18T01:19:04.782Z,5.20
2023-04-18T01:21:36.037Z,5.16
2023-04-18T01:24:13.467Z,5.10
2023-04-18T01:26:43.617Z,5.09
2023-04-18T01:29:10.688Z,5.06
2023-04-18T01:31:38.120Z,5.07
2023-04-18T01:34:05.448Z,5.06
2023-04-18T01:36:32.633Z,5.07
2023-04-18T01:38:59.683Z,5.07
2023-04-18T01:41:28.934Z,5.07
2023-04-18T01:43:55.427Z,5.02
2023-04-18T01:46:21.917Z,5.00
2023-04-18T01:48:48.431Z,4.99
2023-04-18T01:51:14.919Z,4.97
2023-04-18T01:53:41.919Z,4.94
2023-04-18T01:56:10.096Z,4.92
2023-04-18T01:58:37.218Z,4.91
2023-04-18T02:01:04.043Z,4.87
2023-04-18T02:03:30.944Z,4.85
2023-04-18T02:05:57.549Z,4.85
2023-04-18T02:08:24.060Z,4.83
2023-04-18T02:10:50.708Z,4.79
2023-04-18T02:13:17.153Z,4.76
2023-04-18T02:15:45.896Z,4.72
2023-04-18T02:18:15.685Z,4.70
2023-04-18T02:20:42.060Z,4.65
2023-04-18T02:23:08.496Z,4.62
2023-04-18T02:25:34.935Z,4.63
2023-04-18T02:28:01.531Z,4.59
2023-04-18T02:30:30.668Z,4.58
2023-04-18T02:32:57.286Z,4.64
2023-04-18T02:35:24.427Z,4.59
2023-04-18T02:37:50.830Z,4.54
2023-04-18T02:40:17.927Z,4.51
2023-04-18T02:42:44.438Z,4.47
2023-04-18T02:45:14.174Z,4.44
2023-04-18T02:47:53.889Z,4.43
2023-04-18T02:50:22.443Z,4.37
2023-04-18T02:52:49.015Z,4.33
2023-04-18T02:55:17.553Z,4.30
2023-04-18T02:57:44.959Z,4.28
2023-04-18T03:00:14.339Z,4.24
2023-04-18T03:02:58.754Z,4.24
2023-04-18T03:05:34.802Z,4.18
2023-04-18T03:08:03.956Z,4.14
2023-04-18T03:10:31.229Z,4.12
2023-04-18T03:12:57.686Z,4.15
2023-04-18T03:15:24.800Z,4.17
2023-04-18T03:17:52.484Z,4.15
2023-04-18T03:20:21.071Z,4.16
2023-04-18T03:22:47.467Z,4.13
2023-04-18T03:25:17.842Z,4.08
2023-04-18T03:27:49.700Z,4.03
2023-04-18T03:30:18.054Z,4.03
2023-04-18T03:32:50.119Z,4.00
2023-04-18T03:35:16.564Z,3.95
2023-04-18T03:37:43.168Z,3.90
2023-04-18T03:40:11.499Z,3.88
2023-04-18T03:42:37.896Z,3.94
2023-04-18T03:45:04.573Z,3.89
2023-04-18T03:47:33.578Z,3.89
2023-04-18T03:50:00.121Z,3.90
2023-04-18T03:52:29.195Z,3.88
2023-04-18T03:54:56.274Z,3.83
2023-04-18T03:57:26.385Z,3.88
2023-04-18T03:59:53.734Z,3.87
2023-04-18T04:02:21.252Z,3.94
2023-04-18T04:04:49.888Z,4.05
2023-04-18T04:07:16.420Z,4.10
2023-04-18T04:09:42.861Z,4.17
2023-04-18T04:12:09.337Z,4.27
2023-04-18T04:14:35.942Z,4.31
2023-04-18T04:17:02.828Z,4.39
2023-04-18T04:19:30.529Z,4.47
2023-04-18T04:22:07.294Z,4.51
2023-04-18T04:24:33.892Z,4.57
2023-04-18T04:27:01.491Z,4.61
2023-04-18T04:29:29.028Z,4.66
2023-04-18T04:31:59.165Z,4.70
2023-04-18T04:34:31.623Z,4.73
2023-04-18T04:37:00.787Z,4.75
2023-04-18T04:39:28.616Z,4.76
2023-04-18T04:42:19.388Z,4.77
2023-04-18T04:44:55.332Z,4.80
2023-04-18T04:47:22.555Z,4.85
2023-04-18T04:49:49.057Z,4.90
2023-04-18T04:52:15.617Z,4.92
2023-04-18T04:54:43.272Z,4.94
2023-04-18T04:57:11.786Z,4.95
2023-04-18T04:59:38.350Z,4.96
2023-04-18T05:02:05.638Z,4.97
2023-04-18T05:04:32.356Z,5.01
2023-04-18T05:06:59.053Z,5.01
2023-04-18T05:09:26.059Z,5.03
2023-04-18T05:11:52.475Z,5.05
2023-04-18T05:14:20.673Z,5.08
2023-04-18T05:16:47.581Z,5.12
2023-04-18T05:19:14.018Z,5.16
2023-04-18T05:21:40.829Z,5.21
2023-04-18T05:24:07.299Z,5.26
2023-04-18T05:26:33.717Z,5.29
2023-04-18T05:29:00.670Z,5.35
2023-04-18T05:31:27.412Z,5.40
2023-04-18T05:33:53.855Z,5.44
2023-04-18T05:36:20.415Z,5.48
2023-04-18T05:38:46.887Z,5.51
2023-04-18T05:41:13.297Z,5.54
2023-04-18T05:43:40.186Z,5.57
2023-04-18T05:46:08.946Z,5.62
2023-04-18T05:48:35.360Z,5.65
2023-04-18T05:51:01.931Z,5.69
2023-04-18T05:53:28.354Z,5.75
2023-04-18T05:55:55.063Z,5.80
2023-04-18T05:58:21.690Z,5.84
2023-04-18T06:00:48.182Z,5.87
2023-04-18T06:03:14.757Z,5.90
2023-04-18T06:05:41.493Z,5.95
2023-04-18T06:08:08.024Z,5.97
2023-04-18T06:10:34.450Z,5.98
2023-04-18T06:13:01.307Z,6.01
2023-04-18T06:15:27.822Z,6.06
2023-04-18T06:17:54.384Z,6.12
2023-04-18T06:20:23.018Z,6.17
2023-04-18T06:22:49.478Z,6.28
2023-04-18T06:25:16.063Z,6.32
2023-04-18T06:27:42.575Z,6.40
2023-04-18T06:30:09.370Z,6.51
2023-04-18T06:32:35.935Z,6.61
2023-04-18T06:35:02.418Z,6.72
2023-04-18T06:37:29.111Z,6.77
2023-04-18T06:39:55.582Z,6.86
2023-04-18T06:42:22.648Z,6.96
2023-04-18T06:44:49.680Z,7.08
2023-04-18T06:47:16.308Z,7.17
2023-04-18T06:49:42.696Z,7.17
2023-04-18T06:52:09.090Z,7.08
2023-04-18T06:54:35.494Z,7.19
2023-04-18T06:57:03.680Z,7.24
2023-04-18T06:59:30.630Z,7.22
2023-04-18T07:01:57.065Z,7.34
2023-04-18T07:04:23.627Z,7.39
2023-04-18T07:06:51.756Z,7.50
2023-04-18T07:09:18.172Z,7.49
2023-04-18T07:11:44.709Z,7.34
2023-04-18T07:14:12.263Z,7.26
2023-04-18T07:16:38.979Z,7.29
2023-04-18T07:19:05.883Z,7.34
2023-04-18T07:21:32.780Z,7.39
2023-04-18T07:23:59.156Z,7.39
2023-04-18T07:26:27.511Z,7.47
2023-04-18T07:28:53.983Z,7.55
2023-04-18T07:31:20.523Z,7.67
2023-04-18T07:33:47.012Z,7.74
2023-04-18T07:36:13.561Z,7.82
2023-04-18T07:38:40.070Z,7.82
2023-04-18T07:41:06.548Z,7.91
2023-04-18T07:43:33.055Z,8.24
2023-04-18T07:45:59.492Z,8.53
2023-04-18T07:48:26.019Z,9.28
2023-04-18T07:50:52.976Z,9.12
2023-04-18T07:53:19.774Z,9.03
2023-04-18T07:55:46.506Z,8.83
2023-04-18T07:58:13.055Z,8.75
2023-04-18T08:00:39.747Z,8.82
2023-04-18T08:03:07.636Z,8.87
2023-04-18T08:05:34.759Z,8.88
2023-04-18T08:08:01.511Z,8.87
2023-04-18T08:10:28.105Z,8.91
2023-04-18T08:12:54.604Z,9.74
2023-04-18T08:15:21.191Z,10.25
2023-04-18T08:17:49.121Z,10.66
2023-04-18T08:20:15.797Z,11.94
2023-04-18T08:22:57.683Z,11.43
2023-04-18T08:25:28.985Z,10.68
2023-04-18T08:27:55.906Z,10.08
2023-04-18T08:30:22.435Z,9.91
2023-04-18T08:32:49.630Z,9.78
2023-04-18T08:35:16.420Z,9.53
2023-04-18T08:37:43.309Z,9.40
2023-04-18T08:40:09.986Z,9.37
2023-04-18T08:42:38.351Z,9.27
2023-04-18T08:45:06.859Z,9.28
2023-04-18T08:47:35.123Z,9.23
2023-04-18T08:50:01.939Z,9.44
2023-04-18T08:52:30.737Z,9.65
2023-04-18T08:54:58.678Z,9.69
2023-04-18T08:57:27.976Z,9.59
2023-04-18T08:59:55.159Z,9.64
2023-04-18T09:02:23.266Z,9.79
2023-04-18T09:04:52.668Z,10.08
2023-04-18T09:07:28.512Z,10.22
2023-04-18T09:09:59.276Z,10.44
2023-04-18T09:12:27.654Z,10.38
2023-04-18T09:15:09.833Z,10.28
2023-04-18T09:17:38.729Z,10.19
2023-04-18T09:20:06.330Z,10.15
2023-04-18T09:22:50.272Z,10.31
2023-04-18T09:25:42.721Z,10.22
2023-04-18T09:28:31.745Z,10.02
2023-04-18T09:31:18.908Z,10.07
2023-04-18T09:33:54.514Z,10.49
2023-04-18T09:36:28.191Z,10.62
2023-04-18T09:38:57.002Z,10.63
2023-04-18T09:41:24.336Z,10.88
2023-04-18T09:44:10.958Z,10.83
2023-04-18T09:46:39.905Z,10.65
2023-04-18T09:49:07.395Z,10.52
2023-04-18T09:51:35.266Z,10.45
2023-04-18T09:54:04.941Z,10.37
2023-04-18T09:56:34.339Z,10.46
2023-04-18T09:59:09.128Z,10.64
2023-04-18T10:01:36.490Z,10.60
2023-04-18T10:04:06.458Z,10.44
2023-04-18T10:06:39.837Z,10.43
2023-04-18T10:09:09.296Z,10.64
2023-04-18T10:11:36.443Z,10.72
2023-04-18T10:14:07.660Z,10.47
2023-04-18T10:16:36.280Z,10.20
2023-04-18T10:19:26.838Z,10.28
2023-04-18T10:21:54.764Z,10.54
2023-04-18T10:24:52.742Z,10.87
2023-04-18T10:27:47.829Z,10.79
2023-04-18T10:30:15.239Z,10.60
2023-04-18T10:32:41.759Z,10.52
2023-04-18T10:35:08.446Z,10.54
2023-04-18T10:37:34.891Z,10.54
2023-04-18T10:40:05.987Z,10.92
2023-04-18T10:42:47.601Z,11.18
2023-04-18T10:45:22.219Z,11.27
2023-04-18T10:47:49.266Z,11.39
2023-04-18T10:50:16.894Z,11.56
2023-04-18T10:52:43.419Z,11.90
2023-04-18T10:55:20.732Z,12.47
2023-04-18T10:57:49.038Z,12.48
2023-04-18T11:00:17.490Z,12.61
2023-04-18T11:02:53.711Z,12.29
2023-04-18T11:05:23.421Z,12.26
2023-04-18T11:07:49.934Z,12.19
2023-04-18T11:10:20.248Z,12.40
2023-04-18T11:12:47.341Z,12.29
2023-04-18T11:15:22.023Z,12.43
2023-04-18T11:18:02.974Z,12.66
2023-04-18T11:20:40.877Z,12.71
2023-04-18T11:23:20.095Z,12.52
2023-04-18T11:25:49.400Z,12.48
2023-04-18T11:28:20.872Z,12.73
2023-04-18T11:30:47.558Z,12.81
2023-04-18T11:33:14.868Z,12.88
2023-04-18T11:35:43.204Z,13.13
2023-04-18T11:38:12.984Z,13.74
2023-04-18T11:40:39.682Z,14.21
2023-04-18T11:43:07.283Z,14.12
2023-04-18T11:45:33.892Z,13.67
2023-04-18T11:48:01.027Z,12.95
2023-04-18T11:50:27.661Z,12.44
2023-04-18T11:52:56.430Z,12.25
2023-04-18T11:55:24.849Z,12.26
2023-04-18T11:57:53.721Z,12.54
2023-04-18T12:00:31.309Z,12.34
2023-04-18T12:02:59.208Z,12.15
2023-04-18T12:05:28.194Z,11.92
2023-04-18T12:07:55.925Z,11.94
2023-04-18T12:10:22.303Z,12.10
2023-04-18T12:12:53.881Z,12.18
2023-04-18T12:15:23.506Z,12.35
2023-04-18T12:17:51.714Z,12.37
2023-04-18T12:20:18.403Z,12.18
2023-04-18T12:22:49.981Z,11.94
2023-04-18T12:25:26.911Z,11.94
2023-04-18T12:27:55.035Z,11.92
2023-04-18T12:30:23.353Z,12.02
2023-04-18T12:32:51.341Z,12.23
2023-04-18T12:35:19.363Z,12.34
2023-04-18T12:37:52.047Z,12.35
2023-04-18T12:40:19.944Z,12.46
2023-04-18T12:42:47.348Z,12.47
2023-04-18T12:45:15.107Z,12.48
2023-04-18T12:47:43.795Z,12.42
2023-04-18T12:50:12.257Z,12.42
2023-04-18T12:52:40.222Z,12.23
2023-04-18T12:55:08.170Z,12.22
2023-04-18T12:57:34.826Z,12.16
2023-04-18T13:00:01.541Z,12.05
2023-04-18T13:02:29.249Z,11.97
2023-04-18T13:04:57.306Z,11.86
2023-04-18T13:07:24.854Z,11.78
2023-04-18T13:09:51.299Z,11.66
2023-04-18T13:12:17.685Z,11.63
2023-04-18T13:14:44.086Z,11.70
2023-04-18T13:17:10.546Z,11.71
2023-04-18T13:19:37.017Z,11.68
2023-04-18T13:22:04.557Z,11.74
2023-04-18T13:24:30.965Z,11.88
2023-04-18T13:26:57.419Z,11.96
2023-04-18T13:29:23.846Z,11.94
2023-04-18T13:31:50.491Z,11.99
2023-04-18T13:34:17.218Z,11.92
2023-04-18T13:36:43.601Z,11.95
2023-04-18T13:39:10.629Z,11.98
2023-04-18T13:41:37.032Z,12.11
2023-04-18T13:44:03.526Z,12.04
2023-04-18T13:46:30.895Z,12.12
2023-04-18T13:48:57.433Z,12.29
2023-04-18T13:51:23.820Z,12.40
2023-04-18T13:53:51.510Z,12.48
2023-04-18T13:56:17.909Z,12.70
2023-04-18T13:58:44.342Z,12.78
2023-04-18T14:01:11.648Z,13.25
2023-04-18T14:03:39.895Z,13.86
2023-04-18T14:06:07.959Z,13.81
2023-04-18T14:08:34.376Z,13.63
2023-04-18T14:11:00.797Z,13.52
2023-04-18T14:13:27.189Z,13.49
2023-04-18T14:15:54.024Z,13.49
2023-04-18T14:18:21.675Z,13.49
2023-04-18T14:20:48.578Z,13.55
2023-04-18T14:23:15.946Z,13.68
2023-04-18T14:25:43.106Z,13.52
2023-04-18T14:28:11.349Z,13.32
2023-04-18T14:30:39.345Z,13.13
2023-04-18T14:33:06.642Z,13.56
2023-04-18T14:35:33.262Z,13.62
2023-04-18T14:37:59.699Z,13.47
2023-04-18T14:40:27.062Z,13.14
2023-04-18T14:42:53.478Z,13.30
2023-04-18T14:45:19.909Z,13.85
2023-04-18T14:47:46.412Z,14.33
2023-04-18T14:50:12.892Z,14.25
2023-04-18T14:52:40.320Z,14.34
2023-04-18T14:55:08.390Z,14.27
2023-04-18T14:57:36.533Z,14.17
2023-04-18T15:00:10.429Z,14.25
2023-04-18T15:02:37.440Z,14.41
2023-04-18T15:05:04.956Z,14.42
2023-04-18T15:07:31.601Z,14.60
2023-04-18T15:09:58.045Z,14.41
2023-04-18T15:12:24.776Z,14.41
2023-04-18T15:14:51.529Z,14.58
2023-04-18T15:17:18.008Z,14.65
2023-04-18T15:19:44.541Z,14.76
2023-04-18T15:22:11.043Z,14.38
2023-04-18T15:24:37.422Z,13.66
2023-04-18T15:27:04.008Z,13.64
2023-04-18T15:29:30.454Z,13.90
2023-04-18T15:31:56.875Z,14.19
2023-04-18T15:34:23.717Z,14.41
2023-04-18T15:36:50.415Z,14.37
2023-04-18T15:39:20.137Z,14.39
2023-04-18T15:41:47.211Z,14.40
2023-04-18T15:44:13.786Z,14.59
2023-04-18T15:46:40.473Z,14.71
2023-04-18T15:49:07.384Z,14.82
2023-04-18T15:51:33.816Z,14.67
2023-04-18T15:54:00.276Z,14.73
2023-04-18T15:56:32.462Z,14.74
2023-04-18T15:59:00.137Z,14.84
2023-04-18T16:01:26.736Z,14.93
2023-04-18T16:03:53.189Z,14.75
2023-04-18T16:06:23.236Z,14.62
2023-04-18T16:08:49.964Z,14.50
2023-04-18T16:11:16.451Z,14.44
2023-04-18T16:13:43.234Z,14.39
2023-04-18T16:16:09.808Z,14.38
2023-04-18T16:18:36.324Z,14.45
2023-04-18T16:21:02.844Z,14.16
2023-04-18T16:23:31.846Z,13.89
2023-04-18T16:25:58.342Z,13.72
2023-04-18T16:28:24.749Z,13.55
2023-04-18T16:30:52.069Z,13.56
2023-04-18T16:33:24.406Z,13.54
2023-04-18T16:35:51.502Z,13.68
2023-04-18T16:38:17.993Z,13.81
2023-04-18T16:40:44.423Z,13.87
2023-04-18T16:43:10.800Z,13.96
2023-04-18T16:45:37.207Z,13.98
2023-04-18T16:48:03.891Z,13.99
2023-04-18T16:50:30.383Z,14.05
2023-04-18T16:52:56.818Z,14.18
2023-04-18T16:55:23.318Z,14.27
2023-04-18T16:57:50.840Z,14.15
2023-04-18T17:00:17.474Z,13.95
2023-04-18T17:02:44.183Z,13.74
2023-04-18T17:05:11.112Z,13.57
2023-04-18T17:07:37.608Z,13.40
2023-04-18T17:10:04.340Z,13.29
2023-04-18T17:12:31.255Z,13.13
2023-04-18T17:14:57.634Z,12.99
2023-04-18T17:17:24.103Z,12.99
2023-04-18T17:19:50.756Z,12.92
2023-04-18T17:22:17.303Z,12.88
2023-04-18T17:24:43.699Z,12.84
2023-04-18T17:27:10.200Z,12.85
2023-04-18T17:29:37.218Z,12.96
2023-04-18T17:32:04.012Z,13.04
2023-04-18T17:34:30.754Z,13.12
2023-04-18T17:36:57.174Z,13.13
2023-04-18T17:39:23.543Z,13.07
2023-04-18T17:41:50.125Z,13.04
2023-04-18T17:44:16.620Z,12.95
2023-04-18T17:46:42.997Z,12.86
2023-04-18T17:49:09.789Z,12.77
2023-04-18T17:51:36.298Z,12.66
2023-04-18T17:54:02.891Z,12.56
2023-04-18T17:56:30.389Z,12.46
2023-04-18T17:58:57.140Z,12.36
2023-04-18T18:01:24.670Z,12.34
2023-04-18T18:03:53.490Z,12.30
2023-04-18T18:06:20.161Z,12.25
2023-04-18T18:08:46.591Z,12.19
2023-04-18T18:11:13.126Z,12.11
2023-04-18T18:13:39.518Z,12.09
2023-04-18T18:16:06.955Z,12.05
2023-04-18T18:18:34.395Z,11.97
2023-04-18T18:21:00.822Z,11.87
2023-04-18T18:23:27.311Z,11.78
2023-04-18T18:25:53.689Z,11.77
2023-04-18T18:28:20.255Z,11.68
2023-04-18T18:30:46.693Z,11.65
2023-04-18T18:33:13.082Z,11.56
2023-04-18T18:35:39.475Z,11.52
2023-04-18T18:38:05.982Z,11.45
2023-04-18T18:40:32.432Z,11.37
2023-04-18T18:42:59.356Z,11.27
2023-04-18T18:45:25.872Z,11.23
2023-04-18T18:47:52.427Z,11.18
2023-04-18T18:50:18.897Z,11.10
2023-04-18T18:52:45.405Z,11.06
2023-04-18T18:55:12.086Z,11.02
2023-04-18T18:57:38.541Z,10.89
2023-04-18T19:00:10.909Z,10.76
2023-04-18T19:02:38.766Z,10.67
2023-04-18T19:05:05.996Z,10.55
2023-04-18T19:07:32.428Z,10.45
2023-04-18T19:10:00.478Z,10.35
2023-04-18T19:12:28.117Z,10.32
2023-04-18T19:14:54.587Z,10.26
2023-04-18T19:17:24.509Z,10.22
2023-04-18T19:19:52.019Z,10.14
2023-04-18T19:22:18.545Z,10.07
2023-04-18T19:24:44.981Z,10.07
2023-04-18T19:27:11.409Z,10.06
2023-04-18T19:29:39.536Z,10.07
2023-04-18T19:32:06.381Z,10.09
2023-04-18T19:34:32.905Z,10.10
2023-04-18T19:36:59.961Z,10.10
2023-04-18T19:39:26.704Z,10.04
2023-04-18T19:41:53.203Z,9.93
2023-04-18T19:44:19.652Z,9.87
2023-04-18T19:46:46.066Z,9.82
2023-04-18T19:49:12.913Z,9.76
2023-04-18T19:51:40.298Z,9.72
2023-04-18T19:54:06.827Z,9.72
2023-04-18T19:56:33.273Z,9.77
2023-04-18T19:58:59.876Z,9.65
2023-04-18T20:01:26.305Z,9.57
2023-04-18T20:03:53.983Z,9.54
2023-04-18T20:06:20.513Z,9.57
2023-04-18T20:08:47.011Z,9.53
2023-04-18T20:11:14.187Z,9.49
2023-04-18T20:13:41.265Z,9.51
2023-04-18T20:16:08.909Z,9.51
2023-04-18T20:18:37.731Z,9.59
2023-04-18T20:21:06.796Z,9.56
2023-04-18T20:23:33.974Z,9.56
2023-04-18T20:26:00.454Z,9.54
2023-04-18T20:28:26.950Z,9.48
2023-04-18T20:30:53.386Z,9.43
2023-04-18T20:33:19.890Z,9.39
2023-04-18T20:35:46.677Z,9.33
2023-04-18T20:38:14.314Z,9.22
2023-04-18T20:40:44.753Z,9.21
2023-04-18T20:43:12.609Z,9.13
2023-04-18T20:45:42.681Z,9.12
2023-04-18T20:48:09.528Z,9.09
2023-04-18T20:50:36.024Z,9.02
2023-04-18T20:53:03.960Z,8.97
2023-04-18T20:55:30.422Z,9.03
2023-04-18T20:57:56.967Z,9.02
2023-04-18T21:00:23.446Z,9.03
2023-04-18T21:02:49.996Z,9.04
2023-04-18T21:05:16.499Z,9.03
2023-04-18T21:07:44.080Z,9.00
2023-04-18T21:10:12.153Z,9.02
2023-04-18T21:12:38.572Z,8.99
2023-04-18T21:15:05.621Z,8.94
2023-04-18T21:17:32.130Z,8.97
2023-04-18T21:19:58.571Z,8.93
2023-04-18T21:22:25.083Z,8.86
2023-04-18T21:24:51.511Z,8.81
2023-04-18T21:27:17.933Z,8.82
2023-04-18T21:29:44.373Z,8.80
2023-04-18T21:32:10.802Z,8.77
2023-04-18T21:34:37.272Z,8.78
2023-04-18T21:37:03.727Z,8.76
2023-04-18T21:39:30.113Z,8.73
2023-04-18T21:41:57.125Z,8.76
2023-04-18T21:44:23.574Z,8.70
2023-04-18T21:46:49.996Z,8.70
2023-04-18T21:49:16.518Z,8.67
2023-04-18T21:51:43.314Z,8.62
2023-04-18T21:54:09.740Z,8.58
2023-04-18T21:56:36.140Z,8.56
2023-04-18T21:59:02.516Z,8.56
2023-04-18T22:01:29.050Z,8.57
2023-04-18T22:03:56.045Z,8.52
2023-04-18T22:06:23.225Z,8.47
2023-04-18T22:08:49.984Z,8.45
2023-04-18T22:11:16.418Z,8.44
2023-04-18T22:13:44.929Z,8.43
2023-04-18T22:16:11.975Z,8.39
2023-04-18T22:18:38.424Z,8.34
2023-04-18T22:21:04.880Z,8.26
2023-04-18T22:23:31.403Z,8.20
2023-04-18T22:25:57.845Z,8.20
2023-04-18T22:28:24.441Z,8.19
2023-04-18T22:30:51.184Z,8.16
2023-04-18T22:33:17.595Z,8.18
2023-04-18T22:35:44.069Z,8.20
2023-04-18T22:38:10.497Z,8.13
2023-04-18T22:40:36.959Z,8.09
2023-04-18T22:43:03.470Z,8.06
2023-04-18T22:45:29.854Z,8.08
2023-04-18T22:47:56.358Z,8.14
2023-04-18T22:50:22.854Z,8.08
2023-04-18T22:52:50.514Z,8.08
2023-04-18T22:55:17.391Z,8.04
2023-04-18T22:57:43.836Z,7.96
2023-04-18T23:00:11.034Z,7.94
2023-04-18T23:02:37.765Z,7.92
2023-04-18T23:05:06.857Z,7.88
2023-04-18T23:07:33.338Z,7.81
2023-04-18T23:09:59.705Z,7.78
2023-04-18T23:12:26.795Z,7.79
2023-04-18T23:14:53.240Z,7.79
2023-04-18T23:17:19.685Z,7.79
2023-04-18T23:19:46.216Z,7.77
2023-04-18T23:22:12.699Z,7.79
2023-04-18T23:24:39.064Z,7.75
2023-04-18T23:27:05.800Z,7.76
2023-04-18T23:29:36.619Z,7.80
2023-04-18T23:32:03.222Z,7.86
2023-04-18T23:34:29.670Z,7.87
2023-04-18T23:36:56.067Z,7.88
2023-04-18T23:39:24.218Z,7.89
2023-04-18T23:41:50.696Z,7.89
2023-04-18T23:44:17.166Z,7.87
2023-04-18T23:46:43.665Z,7.89
2023-04-18T23:49:10.390Z,7.90
2023-04-18T23:51:37.637Z,7.87
2023-04-18T23:54:04.088Z,7.81
2023-04-18T23:56:30.550Z,7.82
2023-04-18T23:58:57.369Z,7.80
